Terminal Aerodrome Forecast
Issued by NWS Des Moines, IA

Home | Current Version | Previous Version | Text Only | Print | Product List | Glossary On
Versions: 1 2 3 4 5 6 7 8 9 10 11 12 13 14 15 16 17 18 19 20 21 22 23 24 25 26 27 28 29 30 31 32 33 34 35 36 37 38 39 40
094
FTUS43 KDMX 030533
TAFDSM
TAF
KDSM 030533Z 0306/0406 VRB03KT P6SM FEW015 OVC025
     FM031200 VRB03KT P6SM SCT180
     FM031900 17006KT P6SM BKN080
     FM040000 12004KT P6SM OVC040
     FM040100 12005KT P6SM -RASN OVC040
     FM040500 15006KT 4SM -SN OVC025=

USA.gov is the U.S. government's official web portal to all federal, state and local government web resources and services.